createdAt,value
2023-04-01T00:01:30.508Z,9.60
2023-04-01T00:04:34.861Z,9.64
2023-04-01T00:07:40.712Z,9.55
2023-04-01T00:10:43.457Z,9.46
2023-04-01T00:13:46.651Z,9.31
2023-04-01T00:16:49.385Z,9.33
2023-04-01T00:19:52.143Z,9.47
2023-04-01T00:22:55.333Z,9.36
2023-04-01T00:26:01.289Z,9.33
2023-04-01T00:29:04.099Z,9.39
2023-04-01T00:32:07.179Z,9.28
2023-04-01T00:35:10.663Z,9.28
2023-04-01T00:38:13.927Z,9.27
2023-04-01T00:41:18.329Z,8.96
2023-04-01T00:44:24.581Z,9.12
2023-04-01T00:47:28.248Z,9.17
2023-04-01T00:50:32.293Z,9.11
2023-04-01T00:53:39.287Z,9.13
2023-04-01T00:56:46.819Z,9.13
2023-04-01T00:59:51.316Z,9.13
2023-04-01T01:02:54.246Z,9.16
2023-04-01T01:06:40.409Z,8.96
2023-04-01T01:09:58.143Z,8.91
2023-04-01T01:13:10.151Z,8.98
2023-04-01T01:16:25.414Z,9.02
2023-04-01T01:20:03.075Z,8.90
2023-04-01T01:23:43.470Z,8.93
2023-04-01T01:26:46.108Z,8.92
2023-04-01T01:29:54.847Z,8.97
2023-04-01T01:33:26.846Z,9.00
2023-04-01T01:36:35.886Z,9.18
2023-04-01T01:39:44.485Z,9.07
2023-04-01T01:42:53.707Z,9.21
2023-04-01T01:45:59.480Z,9.32
2023-04-01T01:49:04.634Z,9.38
2023-04-01T01:52:07.442Z,9.40
2023-04-01T01:55:30.875Z,9.39
2023-04-01T01:58:41.691Z,9.50
2023-04-01T02:01:59.500Z,9.52
2023-04-01T02:05:03.133Z,9.57
2023-04-01T02:08:29.306Z,9.57
2023-04-01T02:11:36.504Z,9.66
2023-04-01T02:14:53.945Z,9.62
2023-04-01T02:17:58.272Z,9.59
2023-04-01T02:21:02.018Z,9.63
2023-04-01T02:24:08.009Z,9.62
2023-04-01T02:27:12.307Z,9.63
2023-04-01T02:30:16.838Z,9.56
2023-04-01T02:33:20.976Z,9.64
2023-04-01T02:36:23.708Z,9.73
2023-04-01T02:39:27.662Z,9.75
2023-04-01T02:42:30.435Z,9.64
2023-04-01T02:45:33.286Z,9.69
2023-04-01T02:48:36.127Z,9.73
2023-04-01T02:51:38.830Z,9.70
2023-04-01T02:54:42.188Z,9.70
2023-04-01T02:57:45.216Z,9.61
2023-04-01T03:00:47.997Z,9.67
2023-04-01T03:03:50.802Z,9.65
2023-04-01T03:06:53.589Z,9.64
2023-04-01T03:09:56.363Z,9.57
2023-04-01T03:12:59.093Z,9.52
2023-04-01T03:16:02.687Z,9.46
2023-04-01T03:19:05.396Z,9.44
2023-04-01T03:22:09.006Z,9.43
2023-04-01T03:25:12.319Z,9.43
2023-04-01T03:28:15.321Z,9.39
2023-04-01T03:31:18.164Z,9.30
2023-04-01T03:34:27.414Z,9.34
2023-04-01T03:37:30.254Z,9.43
2023-04-01T03:40:34.392Z,9.38
2023-04-01T03:43:37.450Z,9.29
2023-04-01T03:46:41.501Z,9.33
2023-04-01T03:49:44.748Z,9.38
2023-04-01T03:52:47.460Z,9.36
2023-04-01T03:55:52.601Z,9.32
2023-04-01T03:58:55.358Z,9.28
2023-04-01T04:01:58.265Z,9.30
2023-04-01T04:05:01.221Z,9.28
2023-04-01T04:08:05.373Z,9.24
2023-04-01T04:11:10.383Z,9.30
2023-04-01T04:14:16.444Z,9.24
2023-04-01T04:17:19.801Z,9.24
2023-04-01T04:20:22.925Z,9.16
2023-04-01T04:23:25.789Z,9.21
2023-04-01T04:26:28.685Z,9.23
2023-04-01T04:29:35.799Z,9.08
2023-04-01T04:32:38.738Z,9.32
2023-04-01T04:35:42.082Z,9.27
2023-04-01T04:38:45.002Z,9.26
2023-04-01T04:41:47.923Z,9.17
2023-04-01T04:44:51.131Z,9.19
2023-04-01T04:47:54.117Z,9.25
2023-04-01T04:50:57.002Z,9.27
2023-04-01T04:54:00.227Z,9.23
2023-04-01T04:57:16.873Z,9.41
2023-04-01T05:00:26.891Z,9.38
2023-04-01T05:03:34.129Z,9.52
2023-04-01T05:06:37.200Z,9.66
2023-04-01T05:09:40.929Z,9.74
2023-04-01T05:12:43.808Z,9.64
2023-04-01T05:15:51.260Z,9.67
2023-04-01T05:18:54.083Z,9.80
2023-04-01T05:21:57.248Z,9.72
2023-04-01T05:25:00.145Z,9.96
2023-04-01T05:28:05.791Z,10.03
2023-04-01T05:31:09.438Z,9.83
2023-04-01T05:34:16.991Z,9.85
2023-04-01T05:37:20.977Z,9.80
2023-04-01T05:40:24.441Z,9.78
2023-04-01T05:43:27.261Z,9.89
2023-04-01T05:46:33.490Z,9.63
2023-04-01T05:49:54.193Z,9.60
2023-04-01T05:52:57.009Z,9.69
2023-04-01T05:56:04.638Z,9.67
2023-04-01T05:59:12.661Z,9.66
2023-04-01T06:02:18.828Z,9.54
2023-04-01T06:05:24.927Z,9.65
2023-04-01T06:08:28.251Z,9.83
2023-04-01T06:11:46.600Z,9.63
2023-04-01T06:14:58.616Z,9.68
2023-04-01T06:18:32.525Z,9.67
2023-04-01T06:21:57.183Z,9.55
2023-04-01T06:25:50.342Z,9.63
2023-04-01T06:29:05.889Z,9.63
2023-04-01T06:32:27.060Z,9.66
2023-04-01T06:35:55.388Z,9.86
2023-04-01T06:39:28.957Z,9.68
2023-04-01T06:42:37.964Z,9.80
2023-04-01T06:46:08.484Z,9.71
2023-04-01T06:50:27.781Z,9.70
2023-04-01T06:54:04.985Z,9.59
2023-04-01T06:57:56.852Z,9.75
2023-04-01T07:01:02.660Z,9.85
2023-04-01T07:04:11.953Z,9.71
2023-04-01T07:07:17.955Z,9.51
2023-04-01T07:10:44.306Z,9.56
2023-04-01T07:14:30.832Z,9.74
2023-04-01T07:17:35.570Z,9.76
2023-04-01T07:20:39.675Z,9.65
2023-04-01T07:23:45.695Z,9.68
2023-04-01T07:27:16.070Z,9.64
2023-04-01T07:30:23.147Z,9.69
2023-04-01T07:33:51.264Z,9.69
2023-04-01T07:37:07.554Z,9.75
2023-04-01T07:40:40.205Z,9.60
2023-04-01T07:44:13.202Z,9.77
2023-04-01T07:47:57.987Z,9.96
2023-04-01T07:51:24.557Z,10.18
2023-04-01T07:54:36.895Z,10.49
2023-04-01T07:57:43.495Z,10.44
2023-04-01T08:01:05.111Z,10.64
2023-04-01T08:04:15.576Z,10.63
2023-04-01T08:07:27.544Z,10.61
2023-04-01T08:11:12.194Z,10.49
2023-04-01T08:14:49.993Z,10.47
2023-04-01T08:18:15.304Z,10.21
2023-04-01T08:21:37.035Z,10.17
2023-04-01T08:24:48.164Z,10.24
2023-04-01T08:28:29.847Z,10.31
2023-04-01T08:32:01.605Z,10.36
2023-04-01T08:35:19.516Z,10.37
2023-04-01T08:38:26.974Z,10.55
2023-04-01T08:41:57.049Z,10.74
2023-04-01T08:45:26.161Z,10.66
2023-04-01T08:48:50.567Z,10.86
2023-04-01T08:52:22.746Z,10.87
2023-04-01T08:56:03.337Z,10.67
2023-04-01T08:59:31.482Z,10.45
2023-04-01T09:02:51.913Z,10.80
2023-04-01T09:06:27.170Z,11.04
2023-04-01T09:10:10.762Z,11.10
2023-04-01T09:13:22.926Z,11.15
2023-04-01T09:16:53.497Z,11.41
2023-04-01T09:20:05.622Z,11.49
2023-04-01T09:23:29.673Z,11.51
2023-04-01T09:26:51.190Z,11.85
2023-04-01T09:30:11.035Z,11.65
2023-04-01T09:33:38.642Z,11.47
2023-04-01T09:37:02.586Z,11.71
2023-04-01T09:40:25.198Z,11.47
2023-04-01T09:44:03.113Z,11.89
2023-04-01T09:47:31.868Z,12.09
2023-04-01T09:50:38.152Z,12.45
2023-04-01T09:54:07.420Z,12.96
2023-04-01T09:57:38.750Z,12.33
2023-04-01T10:01:18.552Z,12.83
2023-04-01T10:04:48.611Z,12.72
2023-04-01T10:07:58.214Z,12.65
2023-04-01T10:11:26.564Z,13.12
2023-04-01T10:14:38.662Z,13.20
2023-04-01T10:18:06.352Z,13.28
2023-04-01T10:21:38.628Z,13.18
2023-04-01T10:25:08.874Z,13.09
2023-04-01T10:28:33.941Z,12.79
2023-04-01T10:32:30.201Z,12.78
2023-04-01T10:35:45.379Z,12.77
2023-04-01T10:39:18.917Z,13.05
2023-04-01T10:42:50.960Z,12.89
2023-04-01T10:46:38.539Z,13.33
2023-04-01T10:50:06.978Z,13.39
2023-04-01T10:53:31.563Z,13.89
2023-04-01T10:57:22.735Z,14.02
2023-04-01T11:00:45.642Z,13.77
2023-04-01T11:04:44.146Z,12.79
2023-04-01T11:08:40.454Z,12.24
2023-04-01T11:12:01.884Z,12.70
2023-04-01T11:15:20.834Z,13.21
2023-04-01T11:18:32.534Z,13.19
2023-04-01T11:22:23.157Z,13.20
2023-04-01T11:26:18.657Z,12.46
2023-04-01T11:30:09.250Z,12.59
2023-04-01T11:33:27.622Z,12.48
2023-04-01T11:36:50.333Z,12.70
2023-04-01T11:40:07.472Z,12.45
2023-04-01T11:43:47.916Z,13.40
2023-04-01T11:47:15.721Z,13.50
2023-04-01T11:50:40.724Z,13.14
2023-04-01T11:54:14.112Z,12.99
2023-04-01T11:57:54.260Z,13.08
2023-04-01T12:01:24.492Z,13.23
2023-04-01T12:04:46.843Z,13.02
2023-04-01T12:08:24.399Z,13.29
2023-04-01T12:11:43.081Z,13.37
2023-04-01T12:15:24.794Z,13.50
2023-04-01T12:18:46.332Z,13.19
2023-04-01T12:22:10.916Z,13.50
2023-04-01T12:25:51.910Z,13.42
2023-04-01T12:29:11.081Z,13.88
2023-04-01T12:32:47.425Z,14.71
2023-04-01T12:36:10.130Z,14.58
2023-04-01T12:39:37.465Z,13.81
2023-04-01T12:43:05.376Z,13.06
2023-04-01T12:46:08.096Z,13.05
2023-04-01T12:49:46.952Z,13.93
2023-04-01T12:53:11.743Z,14.57
2023-04-01T12:56:31.839Z,15.39
2023-04-01T12:59:40.796Z,14.98
2023-04-01T13:03:15.709Z,15.44
2023-04-01T13:06:42.640Z,15.13
2023-04-01T13:10:09.687Z,14.58
2023-04-01T13:13:38.683Z,15.10
2023-04-01T13:16:47.043Z,15.51
2023-04-01T13:20:06.251Z,15.80
2023-04-01T13:23:24.548Z,15.19
2023-04-01T13:26:58.812Z,14.58
2023-04-01T13:30:23.680Z,14.64
2023-04-01T13:33:43.048Z,14.46
2023-04-01T13:36:58.108Z,14.06
2023-04-01T13:40:15.046Z,13.62
2023-04-01T13:43:21.143Z,13.74
2023-04-01T13:46:42.000Z,14.06
2023-04-01T13:49:57.209Z,13.51
2023-04-01T13:53:47.079Z,12.99
2023-04-01T13:57:00.031Z,13.22
2023-04-01T14:00:24.795Z,12.82
2023-04-01T14:03:27.893Z,12.41
2023-04-01T14:06:39.112Z,12.37
2023-04-01T14:10:10.816Z,12.03
2023-04-01T14:13:24.591Z,12.23
2023-04-01T14:16:42.588Z,12.32
2023-04-01T14:20:16.726Z,12.03
2023-04-01T14:23:48.859Z,12.27
2023-04-01T14:26:57.951Z,12.61
2023-04-01T14:30:22.751Z,12.81
2023-04-01T14:33:40.818Z,12.92
2023-04-01T14:36:47.933Z,13.22
2023-04-01T14:39:53.562Z,13.12
2023-04-01T14:43:23.147Z,13.23
2023-04-01T14:46:31.867Z,13.55
2023-04-01T14:49:40.869Z,13.13
2023-04-01T14:53:06.291Z,13.17
2023-04-01T14:56:09.276Z,13.23
2023-04-01T14:59:18.939Z,13.41
2023-04-01T15:02:40.164Z,13.76
2023-04-01T15:06:18.981Z,13.50
2023-04-01T15:09:34.476Z,13.33
2023-04-01T15:12:46.089Z,12.71
2023-04-01T15:16:33.686Z,12.49
2023-04-01T15:20:07.817Z,12.26
2023-04-01T15:23:29.402Z,12.12
2023-04-01T15:26:44.845Z,12.14
2023-04-01T15:30:15.632Z,11.81
2023-04-01T15:33:41.913Z,11.69
2023-04-01T15:36:53.918Z,11.65
2023-04-01T15:40:09.179Z,11.76
2023-04-01T15:43:23.742Z,11.91
2023-04-01T15:46:42.378Z,11.62
2023-04-01T15:49:52.236Z,11.68
2023-04-01T15:53:27.302Z,11.67
2023-04-01T15:56:53.144Z,11.82
2023-04-01T16:00:17.736Z,11.72
2023-04-01T16:03:38.960Z,11.63
2023-04-01T16:07:00.740Z,11.57
2023-04-01T16:10:51.535Z,11.30
2023-04-01T16:14:16.028Z,11.27
2023-04-01T16:17:44.928Z,11.26
2023-04-01T16:21:07.100Z,11.33
2023-04-01T16:24:37.530Z,11.43
2023-04-01T16:28:11.070Z,11.36
2023-04-01T16:31:38.443Z,11.53
2023-04-01T16:35:07.491Z,11.51
2023-04-01T16:38:16.430Z,11.57
2023-04-01T16:41:27.489Z,11.68
2023-04-01T16:44:30.895Z,11.68
2023-04-01T16:47:41.781Z,11.59
2023-04-01T16:50:59.934Z,11.55
2023-04-01T16:54:21.206Z,11.45
2023-04-01T16:57:45.790Z,11.51
2023-04-01T17:01:05.951Z,11.56
2023-04-01T17:04:40.209Z,11.37
2023-04-01T17:08:02.179Z,11.32
2023-04-01T17:11:20.407Z,11.30
2023-04-01T17:14:32.204Z,11.29
2023-04-01T17:17:51.031Z,11.14
2023-04-01T17:20:57.133Z,10.93
2023-04-01T17:24:02.904Z,10.83
2023-04-01T17:27:29.976Z,10.76
2023-04-01T17:31:01.811Z,10.81
2023-04-01T17:34:05.276Z,10.82
2023-04-01T17:37:31.527Z,10.74
2023-04-01T17:41:13.197Z,10.65
2023-04-01T17:44:25.254Z,10.50
2023-04-01T17:47:31.419Z,10.50
2023-04-01T17:51:04.595Z,10.30
2023-04-01T17:54:41.182Z,10.16
2023-04-01T17:58:00.429Z,10.20
2023-04-01T18:01:35.539Z,10.18
2023-04-01T18:04:43.817Z,10.16
2023-04-01T18:08:08.696Z,10.11
2023-04-01T18:11:30.266Z,9.98
2023-04-01T18:14:41.894Z,9.94
2023-04-01T18:17:57.267Z,9.74
2023-04-01T18:21:08.869Z,9.70
2023-04-01T18:24:33.504Z,9.58
2023-04-01T18:27:42.056Z,9.56
2023-04-01T18:30:53.840Z,9.37
2023-04-01T18:34:19.674Z,9.28
2023-04-01T18:37:33.087Z,9.22
2023-04-01T18:40:39.488Z,9.19
2023-04-01T18:44:21.185Z,9.01
2023-04-01T18:47:47.032Z,9.12
2023-04-01T18:50:53.019Z,9.02
2023-04-01T18:54:03.223Z,9.02
2023-04-01T18:57:17.215Z,8.97
2023-04-01T19:00:24.055Z,8.98
2023-04-01T19:03:34.658Z,9.01
2023-04-01T19:06:50.489Z,9.02
2023-04-01T19:09:53.767Z,8.97
2023-04-01T19:13:19.860Z,8.85
2023-04-01T19:16:37.941Z,8.77
2023-04-01T19:19:56.353Z,8.80
2023-04-01T19:23:11.164Z,8.64
2023-04-01T19:26:56.367Z,8.67
2023-04-01T19:30:12.836Z,8.65
2023-04-01T19:33:24.581Z,8.58
2023-04-01T19:36:48.623Z,8.62
2023-04-01T19:40:19.586Z,8.41
2023-04-01T19:43:47.176Z,8.37
2023-04-01T19:47:20.196Z,8.23
2023-04-01T19:50:44.219Z,8.19
2023-04-01T19:54:22.539Z,8.12
2023-04-01T19:57:46.093Z,8.25
2023-04-01T20:00:55.516Z,8.17
2023-04-01T20:04:10.438Z,8.04
2023-04-01T20:07:19.485Z,7.94
2023-04-01T20:11:00.364Z,7.91
2023-04-01T20:14:22.567Z,7.88
2023-04-01T20:17:27.965Z,7.87
2023-04-01T20:20:31.622Z,7.94
2023-04-01T20:23:51.180Z,7.92
2023-04-01T20:27:31.966Z,8.02
2023-04-01T20:30:34.586Z,8.20
2023-04-01T20:34:13.858Z,8.20
2023-04-01T20:37:19.443Z,8.32
2023-04-01T20:40:35.800Z,8.27
2023-04-01T20:44:06.917Z,8.07
2023-04-01T20:47:37.345Z,7.88
2023-04-01T20:50:51.250Z,7.99
2023-04-01T20:54:23.285Z,7.91
2023-04-01T20:57:29.453Z,7.87
2023-04-01T21:00:39.098Z,7.83
2023-04-01T21:03:51.224Z,7.89
2023-04-01T21:07:07.883Z,7.83
2023-04-01T21:10:35.278Z,7.79
2023-04-01T21:13:45.086Z,7.63
2023-04-01T21:17:14.419Z,7.60
2023-04-01T21:20:33.423Z,7.64
2023-04-01T21:23:48.498Z,7.61
2023-04-01T21:27:00.956Z,7.58
2023-04-01T21:30:26.112Z,7.41
2023-04-01T21:33:38.106Z,7.36
2023-04-01T21:36:46.659Z,7.29
2023-04-01T21:40:17.124Z,7.43
2023-04-01T21:43:45.922Z,7.28
2023-04-01T21:47:16.688Z,7.25
2023-04-01T21:50:46.509Z,7.22
2023-04-01T21:54:27.631Z,7.29
2023-04-01T21:58:11.872Z,7.22
2023-04-01T22:01:36.285Z,7.01
2023-04-01T22:04:54.250Z,7.01
2023-04-01T22:08:24.963Z,6.91
2023-04-01T22:12:05.954Z,6.93
2023-04-01T22:15:30.868Z,6.87
2023-04-01T22:18:49.740Z,7.04
2023-04-01T22:22:13.979Z,6.99
2023-04-01T22:25:25.375Z,6.96
2023-04-01T22:28:40.477Z,6.91
2023-04-01T22:31:48.800Z,6.92
2023-04-01T22:35:02.117Z,6.70
2023-04-01T22:38:10.682Z,6.72
2023-04-01T22:41:52.770Z,6.48
2023-04-01T22:45:22.349Z,6.50
2023-04-01T22:48:46.951Z,6.57
2023-04-01T22:52:11.355Z,6.59
2023-04-01T22:55:18.535Z,6.62
2023-04-01T22:58:29.997Z,6.33
2023-04-01T23:01:38.513Z,6.31
2023-04-01T23:04:44.082Z,6.15
2023-04-01T23:08:20.988Z,6.22
2023-04-01T23:11:34.704Z,6.36
2023-04-01T23:14:56.725Z,6.13
2023-04-01T23:18:10.783Z,5.86
2023-04-01T23:21:19.490Z,5.81
2023-04-01T23:24:31.131Z,5.91
2023-04-01T23:28:15.910Z,5.79
2023-04-01T23:31:36.776Z,5.86
2023-04-01T23:34:39.523Z,6.12
2023-04-01T23:37:42.377Z,6.32
2023-04-01T23:40:45.998Z,6.61
2023-04-01T23:43:56.167Z,6.66
2023-04-01T23:46:59.904Z,6.76
2023-04-01T23:50:12.181Z,6.72
2023-04-01T23:53:25.121Z,6.92
2023-04-01T23:56:44.095Z,7.18
